Terminal Aerodrome Forecast
Issued by NWS San Angelo, TX

Home | Current Version | Previous Version | Text Only | Print | Product List | Glossary On
Versions: 1 2 3 4 5 6 7 8 9 10 11 12 13 14 15 16 17
000
FTUS44 KSJT 230520
TAFSJT
TAF
KSJT 230520Z 2306/2406 01010KT P6SM VCSH SCT060 BKN250
      TEMPO 2306/2307 5SM -SHRA BKN060
     FM230800 33010KT P6SM BKN100
     FM231200 25007KT P6SM OVC035
     FM231900 02007KT P6SM VCTS BKN035CB
     FM240100 05007KT P6SM BKN050=

USA.gov is the U.S. government's official web portal to all federal, state and local government web resources and services.